createdAt,value
2023-05-19T00:01:52.653Z,99976.38
2023-05-19T00:04:40.740Z,99977.44
2023-05-19T00:07:18.837Z,99978.86
2023-05-19T00:09:57.708Z,99977.11
2023-05-19T00:12:38.881Z,99981.16
2023-05-19T00:15:33.013Z,99985.38
2023-05-19T00:18:26.662Z,99982.23
2023-05-19T00:20:59.738Z,99983.10
2023-05-19T00:23:32.394Z,99981.17
2023-05-19T00:26:05.127Z,99986.94
2023-05-19T00:28:38.316Z,99989.92
2023-05-19T00:31:13.954Z,99989.92
2023-05-19T00:33:49.795Z,99988.91
2023-05-19T00:36:22.501Z,99983.67
2023-05-19T00:38:57.440Z,99988.06
2023-05-19T00:41:36.065Z,99984.04
2023-05-19T00:44:09.620Z,99984.58
2023-05-19T00:46:44.805Z,99976.52
2023-05-19T00:49:20.632Z,99980.71
2023-05-19T00:51:55.182Z,99978.77
2023-05-19T00:54:31.616Z,99978.93
2023-05-19T00:57:07.673Z,99980.67
2023-05-19T00:59:40.696Z,99984.00
2023-05-19T01:02:16.287Z,99983.27
2023-05-19T01:04:53.724Z,99986.77
2023-05-19T01:07:29.220Z,99985.36
2023-05-19T01:10:05.681Z,99987.46
2023-05-19T01:12:58.386Z,99988.52
2023-05-19T01:15:35.498Z,99989.02
2023-05-19T01:18:26.110Z,99986.93
2023-05-19T01:21:10.966Z,99988.32
2023-05-19T01:23:57.231Z,99993.21
2023-05-19T01:26:56.510Z,99991.98
2023-05-19T01:29:44.250Z,99987.77
2023-05-19T01:32:22.348Z,99986.19
2023-05-19T01:34:56.800Z,99987.41
2023-05-19T01:37:33.371Z,99987.06
2023-05-19T01:40:16.715Z,99987.89
2023-05-19T01:42:55.541Z,99986.15
2023-05-19T01:45:34.178Z,99984.55
2023-05-19T01:48:10.880Z,99983.15
2023-05-19T01:50:57.347Z,99987.88
2023-05-19T01:53:32.648Z,99984.73
2023-05-19T01:56:06.679Z,99984.02
2023-05-19T01:58:54.273Z,99983.85
2023-05-19T02:01:37.279Z,99982.80
2023-05-19T02:04:28.767Z,99980.34
2023-05-19T02:07:03.060Z,99979.29
2023-05-19T02:09:50.491Z,99977.02
2023-05-19T02:12:34.333Z,99975.79
2023-05-19T02:15:15.992Z,99972.64
2023-05-19T02:17:54.788Z,99976.48
2023-05-19T02:20:30.482Z,99977.20
2023-05-19T02:23:06.897Z,99978.77
2023-05-19T02:25:44.704Z,99973.73
2023-05-19T02:28:20.887Z,99974.98
2023-05-19T02:31:08.911Z,99971.31
2023-05-19T02:33:44.387Z,99970.64
2023-05-19T02:36:16.945Z,99966.45
2023-05-19T02:39:01.148Z,99960.14
2023-05-19T02:41:37.066Z,99958.05
2023-05-19T02:44:13.068Z,99958.39
2023-05-19T02:47:06.145Z,99964.70
2023-05-19T02:49:48.828Z,99964.18
2023-05-19T02:52:21.510Z,99966.64
2023-05-19T02:54:56.867Z,99963.69
2023-05-19T02:57:38.626Z,99961.44
2023-05-19T03:00:13.277Z,99959.70
2023-05-19T03:02:46.161Z,99961.80
2023-05-19T03:05:23.310Z,99962.52
2023-05-19T03:07:59.378Z,99963.73
2023-05-19T03:10:43.175Z,99961.48
2023-05-19T03:13:20.483Z,99963.92
2023-05-19T03:15:57.948Z,99962.70
2023-05-19T03:18:35.633Z,99962.88
2023-05-19T03:21:08.719Z,99965.33
2023-05-19T03:23:44.367Z,99969.72
2023-05-19T03:26:19.771Z,99973.57
2023-05-19T03:28:55.254Z,99979.20
2023-05-19T03:31:48.168Z,99977.77
2023-05-19T03:34:23.998Z,99979.70
2023-05-19T03:36:59.339Z,99976.20
2023-05-19T03:39:35.454Z,99978.10
2023-05-19T03:42:11.245Z,99980.02
2023-05-19T03:44:46.425Z,99986.14
2023-05-19T03:47:22.772Z,99987.54
2023-05-19T03:50:25.080Z,99988.59
2023-05-19T03:53:02.000Z,99988.44
2023-05-19T03:55:48.618Z,99988.13
2023-05-19T03:58:21.362Z,99986.42
2023-05-19T04:01:05.017Z,99987.84
2023-05-19T04:03:40.172Z,99985.60
2023-05-19T04:06:15.869Z,99988.98
2023-05-19T04:08:50.569Z,99989.21
2023-05-19T04:11:26.359Z,99993.83
2023-05-19T04:14:01.631Z,99994.72
2023-05-19T04:16:37.217Z,99995.30
2023-05-19T04:19:10.043Z,100000.22
2023-05-19T04:21:47.967Z,99999.52
2023-05-19T04:24:20.823Z,100006.52
2023-05-19T04:26:56.326Z,100004.08
2023-05-19T04:29:32.714Z,100001.98
2023-05-19T04:32:25.991Z,100002.49
2023-05-19T04:35:03.542Z,100008.27
2023-05-19T04:37:40.659Z,100008.62
2023-05-19T04:40:34.629Z,100008.09
2023-05-19T04:43:19.405Z,100004.06
2023-05-19T04:46:06.462Z,100003.88
2023-05-19T04:48:42.963Z,100003.49
2023-05-19T04:51:18.782Z,99999.47
2023-05-19T04:53:51.736Z,99998.80
2023-05-19T04:56:27.620Z,100000.03
2023-05-19T04:59:03.874Z,100001.63
2023-05-19T05:01:40.384Z,100002.69
2023-05-19T05:04:17.634Z,100000.82
2023-05-19T05:06:53.537Z,100003.54
2023-05-19T05:09:26.601Z,100005.90
2023-05-19T05:12:07.637Z,100008.27
2023-05-19T05:14:51.335Z,100006.58
2023-05-19T05:17:33.412Z,100007.54
2023-05-19T05:20:08.393Z,100007.58
2023-05-19T05:23:02.515Z,100003.39
2023-05-19T05:25:37.402Z,100005.88
2023-05-19T05:28:10.228Z,100008.53
2023-05-19T05:30:43.791Z,100010.83
2023-05-19T05:33:17.456Z,100009.41
2023-05-19T05:35:51.220Z,100016.27
2023-05-19T05:38:25.817Z,100014.68
2023-05-19T05:41:00.546Z,100017.33
2023-05-19T05:43:33.623Z,100014.68
2023-05-19T05:46:08.433Z,100012.23
2023-05-19T05:48:43.090Z,100010.65
2023-05-19T05:51:18.255Z,100011.52
2023-05-19T05:53:55.767Z,100009.23
2023-05-19T05:56:35.073Z,100015.21
2023-05-19T05:59:12.201Z,100015.36
2023-05-19T06:01:45.608Z,100019.57
2023-05-19T06:04:18.014Z,100014.09
2023-05-19T06:06:52.721Z,100015.50
2023-05-19T06:09:27.986Z,100013.21
2023-05-19T06:12:02.758Z,100011.81
2023-05-19T06:14:39.419Z,100011.29
2023-05-19T06:17:22.514Z,100011.50
2023-05-19T06:19:59.766Z,100012.90
2023-05-19T06:22:36.143Z,100015.54
2023-05-19T06:25:14.080Z,100016.23
2023-05-19T06:27:50.278Z,100018.16
2023-05-19T06:30:26.132Z,100020.98
2023-05-19T06:33:19.062Z,100025.38
2023-05-19T06:35:51.939Z,100028.17
2023-05-19T06:38:28.911Z,100031.16
2023-05-19T06:41:04.586Z,100034.88
2023-05-19T06:43:41.643Z,100036.47
2023-05-19T06:46:19.368Z,100038.75
2023-05-19T06:48:54.471Z,100041.73
2023-05-19T06:51:28.565Z,100047.54
2023-05-19T06:54:03.245Z,100042.09
2023-05-19T06:56:38.459Z,100040.54
2023-05-19T06:59:13.212Z,100043.36
2023-05-19T07:01:45.874Z,100044.79
2023-05-19T07:04:22.763Z,100048.48
2023-05-19T07:06:55.543Z,100048.50
2023-05-19T07:09:38.576Z,100043.60
2023-05-19T07:12:31.230Z,100041.30
2023-05-19T07:15:23.936Z,100044.48
2023-05-19T07:18:07.139Z,100043.95
2023-05-19T07:20:41.958Z,100046.59
2023-05-19T07:23:21.979Z,100046.95
2023-05-19T07:25:59.127Z,100050.62
2023-05-19T07:28:43.634Z,100046.23
2023-05-19T07:31:17.601Z,100045.17
2023-05-19T07:33:53.018Z,100048.88
2023-05-19T07:36:27.269Z,100046.79
2023-05-19T07:39:11.037Z,100048.71
2023-05-19T07:41:55.829Z,100046.95
2023-05-19T07:44:48.730Z,100044.13
2023-05-19T07:47:32.759Z,100043.24
2023-05-19T07:50:10.330Z,100043.41
2023-05-19T07:53:05.251Z,100043.23
2023-05-19T07:55:48.309Z,100048.16
2023-05-19T07:58:41.439Z,100051.84
2023-05-19T08:01:34.367Z,100048.84
2023-05-19T08:04:27.962Z,100048.30
2023-05-19T08:07:20.823Z,100045.99
2023-05-19T08:10:03.517Z,100045.45
2023-05-19T08:12:59.122Z,100041.94
2023-05-19T08:15:52.216Z,100044.40
2023-05-19T08:18:46.392Z,100044.04
2023-05-19T08:21:39.622Z,100045.27
2023-05-19T08:24:36.274Z,100045.08
2023-05-19T08:27:29.365Z,100047.54
2023-05-19T08:30:23.597Z,100044.35
2023-05-19T08:33:07.189Z,100042.59
2023-05-19T08:35:40.092Z,100045.03
2023-05-19T08:38:23.196Z,100046.41
2023-05-19T08:40:58.184Z,100051.65
2023-05-19T08:43:50.859Z,100051.09
2023-05-19T08:46:43.985Z,100051.07
2023-05-19T08:49:44.451Z,100051.79
2023-05-19T08:52:49.462Z,100056.51
2023-05-19T08:55:43.436Z,100052.42
2023-05-19T08:58:39.523Z,100058.20
2023-05-19T09:01:28.300Z,100060.80
2023-05-19T09:04:22.341Z,100058.67
2023-05-19T09:07:18.909Z,100056.05
2023-05-19T09:09:52.168Z,100055.91
2023-05-19T09:12:47.639Z,100054.71
2023-05-19T09:15:42.479Z,100052.81
2023-05-19T09:18:35.604Z,100050.02
2023-05-19T09:21:19.128Z,100049.48
2023-05-19T09:24:13.105Z,100048.92
2023-05-19T09:27:06.370Z,100045.75
2023-05-19T09:29:42.052Z,100044.52
2023-05-19T09:32:36.786Z,100046.09
2023-05-19T09:35:29.951Z,100046.04
2023-05-19T09:38:23.043Z,100043.83
2023-05-19T09:41:17.642Z,100040.56
2023-05-19T09:44:13.754Z,100038.53
2023-05-19T09:47:07.195Z,100041.76
2023-05-19T09:50:00.384Z,100034.75
2023-05-19T09:52:53.487Z,100034.92
2023-05-19T09:55:47.555Z,100031.45
2023-05-19T09:58:43.034Z,100034.27
2023-05-19T10:01:37.680Z,100035.77
2023-05-19T10:04:31.708Z,100038.21
2023-05-19T10:07:26.724Z,100043.34
2023-05-19T10:10:21.256Z,100042.99
2023-05-19T10:13:15.417Z,100045.02
2023-05-19T10:16:10.028Z,100046.52
2023-05-19T10:19:03.804Z,100045.00
2023-05-19T10:21:57.325Z,100038.50
2023-05-19T10:24:50.258Z,100039.73
2023-05-19T10:27:35.124Z,100039.90
2023-05-19T10:30:38.831Z,100040.20
2023-05-19T10:33:38.155Z,100038.73
2023-05-19T10:36:40.659Z,100037.88
2023-05-19T10:39:37.628Z,100037.14
2023-05-19T10:42:34.964Z,100033.61
2023-05-19T10:45:32.072Z,100033.39
2023-05-19T10:48:24.984Z,100032.75
2023-05-19T10:51:19.057Z,100034.59
2023-05-19T10:54:16.115Z,100032.66
2023-05-19T10:57:10.097Z,100030.79
2023-05-19T11:00:11.732Z,100027.78
2023-05-19T11:03:17.933Z,100028.99
2023-05-19T11:06:29.491Z,100027.43
2023-05-19T11:09:37.883Z,100023.73
2023-05-19T11:12:44.900Z,100027.91
2023-05-19T11:15:39.166Z,100024.86
2023-05-19T11:18:41.085Z,100031.06
2023-05-19T11:21:47.169Z,100032.04
2023-05-19T11:24:41.963Z,100033.20
2023-05-19T11:27:32.877Z,100034.58
2023-05-19T11:30:26.253Z,100036.14
2023-05-19T11:33:09.267Z,100036.48
2023-05-19T11:36:02.137Z,100033.64
2023-05-19T11:38:55.391Z,100034.86
2023-05-19T11:41:43.289Z,100032.39
2023-05-19T11:44:38.784Z,100036.70
2023-05-19T11:47:23.816Z,100035.10
2023-05-19T11:50:07.801Z,100036.78
2023-05-19T11:52:51.689Z,100035.42
2023-05-19T11:55:25.051Z,100031.55
2023-05-19T11:58:10.428Z,100031.46
2023-05-19T12:00:52.800Z,100033.57
2023-05-19T12:03:46.745Z,100035.98
2023-05-19T12:06:23.126Z,100036.48
2023-05-19T12:08:57.483Z,100039.95
2023-05-19T12:11:41.438Z,100036.04
2023-05-19T12:14:16.537Z,100036.50
2023-05-19T12:16:49.420Z,100035.15
2023-05-19T12:19:24.391Z,100040.25
2023-05-19T12:22:08.410Z,100038.87
2023-05-19T12:24:44.227Z,100037.11
2023-05-19T12:27:39.401Z,100035.45
2023-05-19T12:30:15.526Z,100033.23
2023-05-19T12:32:52.276Z,100034.50
2023-05-19T12:35:38.965Z,100034.13
2023-05-19T12:38:22.356Z,100028.71
2023-05-19T12:41:15.964Z,100028.13
2023-05-19T12:44:18.418Z,100023.67
2023-05-19T12:46:58.559Z,100024.11
2023-05-19T12:50:04.789Z,100023.81
2023-05-19T12:52:59.734Z,100024.53
2023-05-19T12:55:56.104Z,100023.95
2023-05-19T12:58:41.644Z,100030.10
2023-05-19T13:01:25.741Z,100027.70
2023-05-19T13:04:06.052Z,100029.34
2023-05-19T13:06:39.621Z,100029.42
2023-05-19T13:09:17.052Z,100023.95
2023-05-19T13:12:09.482Z,100023.52
2023-05-19T13:15:00.952Z,100021.75
2023-05-19T13:17:46.541Z,100028.71
2023-05-19T13:20:41.004Z,100026.38
2023-05-19T13:23:35.602Z,100026.88
2023-05-19T13:26:16.985Z,100030.14
2023-05-19T13:29:02.345Z,100032.45
2023-05-19T13:31:55.304Z,100027.23
2023-05-19T13:34:48.214Z,100029.60
2023-05-19T13:37:31.797Z,100029.16
2023-05-19T13:40:15.870Z,100030.04
2023-05-19T13:42:53.462Z,100028.05
2023-05-19T13:45:30.302Z,100031.29
2023-05-19T13:48:08.660Z,100029.16
2023-05-19T13:51:02.423Z,100025.46
2023-05-19T13:53:43.910Z,100024.48
2023-05-19T13:56:37.122Z,100028.61
2023-05-19T13:59:29.930Z,100028.09
2023-05-19T14:02:22.607Z,100022.61
2023-05-19T14:05:15.894Z,100020.25
2023-05-19T14:08:01.243Z,100017.49
2023-05-19T14:10:57.190Z,100017.64
2023-05-19T14:13:33.852Z,100018.95
2023-05-19T14:16:23.205Z,100021.64
2023-05-19T14:19:07.884Z,100020.25
2023-05-19T14:21:54.524Z,100022.79
2023-05-19T14:24:29.604Z,100020.23
2023-05-19T14:27:02.658Z,100020.34
2023-05-19T14:29:38.921Z,100021.52
2023-05-19T14:32:31.617Z,100021.20
2023-05-19T14:35:24.275Z,100023.70
2023-05-19T14:38:10.189Z,100024.41
2023-05-19T14:41:03.360Z,100026.55
2023-05-19T14:43:55.328Z,100027.69
2023-05-19T14:46:42.503Z,100025.98
2023-05-19T14:49:15.288Z,100027.41
2023-05-19T14:52:02.050Z,100027.42
2023-05-19T14:54:41.070Z,100025.33
2023-05-19T14:57:13.423Z,100026.42
2023-05-19T14:59:46.619Z,100031.07
2023-05-19T15:02:18.819Z,100029.70
2023-05-19T15:04:51.284Z,100040.54
2023-05-19T15:07:24.756Z,100044.48
2023-05-19T15:09:57.405Z,100045.93
2023-05-19T15:12:30.045Z,100045.25
2023-05-19T15:15:02.944Z,100045.66
2023-05-19T15:17:35.807Z,100044.81
2023-05-19T15:20:10.390Z,100041.81
2023-05-19T15:22:43.024Z,100038.29
2023-05-19T15:25:15.781Z,100040.57
2023-05-19T15:27:48.280Z,100037.40
2023-05-19T15:30:21.213Z,100034.27
2023-05-19T15:32:53.988Z,100034.64
2023-05-19T15:35:26.796Z,100032.75
2023-05-19T15:38:19.615Z,100028.89
2023-05-19T15:41:13.103Z,100026.41
2023-05-19T15:43:46.714Z,100032.08
2023-05-19T15:46:21.871Z,100030.66
2023-05-19T15:48:55.168Z,100026.75
2023-05-19T15:51:32.440Z,100026.06
2023-05-19T15:54:05.292Z,100022.55
2023-05-19T15:56:41.468Z,100019.91
2023-05-19T15:59:17.627Z,100022.95
2023-05-19T16:02:07.250Z,100018.95
2023-05-19T16:04:42.390Z,100014.73
2023-05-19T16:07:20.908Z,100012.96
2023-05-19T16:10:05.320Z,100010.85
2023-05-19T16:12:41.454Z,100008.58
2023-05-19T16:15:34.776Z,100009.51
2023-05-19T16:18:10.362Z,100009.18
2023-05-19T16:20:45.510Z,100007.43
2023-05-19T16:23:21.149Z,100006.04
2023-05-19T16:25:57.617Z,100009.56
2023-05-19T16:28:30.583Z,100008.33
2023-05-19T16:31:12.350Z,100007.45
2023-05-19T16:33:48.213Z,100010.13
2023-05-19T16:36:27.595Z,100010.30
2023-05-19T16:39:10.070Z,100006.42
2023-05-19T16:41:53.182Z,100010.30
2023-05-19T16:44:36.870Z,100012.10
2023-05-19T16:47:29.885Z,100011.08
2023-05-19T16:50:11.046Z,100012.31
2023-05-19T16:52:46.802Z,100013.41
2023-05-19T16:55:20.895Z,100016.79
2023-05-19T16:57:57.162Z,100016.64
2023-05-19T17:00:30.722Z,100021.27
2023-05-19T17:03:09.148Z,100017.28
2023-05-19T17:05:51.213Z,100017.15
2023-05-19T17:08:34.821Z,100017.67
2023-05-19T17:11:09.773Z,100024.77
2023-05-19T17:13:52.260Z,100023.39
2023-05-19T17:16:37.780Z,100020.96
2023-05-19T17:19:14.040Z,100025.38
2023-05-19T17:21:46.883Z,100023.42
2023-05-19T17:24:19.728Z,100026.27
2023-05-19T17:26:52.571Z,100029.98
2023-05-19T17:29:27.101Z,100035.79
2023-05-19T17:31:59.781Z,100039.13
2023-05-19T17:34:32.233Z,100041.39
2023-05-19T17:37:05.141Z,100038.89
2023-05-19T17:39:39.090Z,100038.72
2023-05-19T17:42:11.926Z,100039.29
2023-05-19T17:44:44.957Z,100044.47
2023-05-19T17:47:17.278Z,100045.40
2023-05-19T17:49:50.463Z,100050.02
2023-05-19T17:52:26.599Z,100047.04
2023-05-19T17:55:00.001Z,100048.45
2023-05-19T17:57:34.721Z,100046.00
2023-05-19T18:00:10.597Z,100045.84
2023-05-19T18:02:44.292Z,100044.24
2023-05-19T18:05:18.819Z,100043.05
2023-05-19T18:07:51.293Z,100041.48
2023-05-19T18:10:27.096Z,100036.77
2023-05-19T18:13:00.453Z,100040.81
2023-05-19T18:15:33.046Z,100040.31
2023-05-19T18:18:07.935Z,100044.21
2023-05-19T18:20:44.489Z,100041.44
2023-05-19T18:23:17.397Z,100045.66
2023-05-19T18:25:53.562Z,100049.71
2023-05-19T18:28:26.590Z,100055.00
2023-05-19T18:31:06.304Z,100054.31
2023-05-19T18:33:40.133Z,100052.74
2023-05-19T18:36:13.617Z,100054.68
2023-05-19T18:38:58.201Z,100059.83
2023-05-19T18:41:32.246Z,100064.23
2023-05-19T18:44:06.340Z,100063.55
2023-05-19T18:46:39.840Z,100068.52
2023-05-19T18:49:25.141Z,100073.44
2023-05-19T18:51:58.246Z,100078.36
2023-05-19T18:54:32.594Z,100078.20
2023-05-19T18:57:05.359Z,100079.08
2023-05-19T18:59:38.328Z,100080.30
2023-05-19T19:02:11.177Z,100084.02
2023-05-19T19:04:45.519Z,100089.66
2023-05-19T19:07:18.291Z,100095.63
2023-05-19T19:09:50.821Z,100096.52
2023-05-19T19:12:25.212Z,100096.70
2023-05-19T19:14:57.734Z,100100.56
2023-05-19T19:17:30.660Z,100094.93
2023-05-19T19:20:03.283Z,100097.94
2023-05-19T19:22:38.739Z,100093.55
2023-05-19T19:25:12.289Z,100095.67
2023-05-19T19:27:45.034Z,100096.38
2023-05-19T19:30:17.765Z,100093.20
2023-05-19T19:32:50.509Z,100092.33
2023-05-19T19:35:24.756Z,100093.55
2023-05-19T19:37:58.590Z,100088.81
2023-05-19T19:40:32.524Z,100095.35
2023-05-19T19:43:05.378Z,100092.38
2023-05-19T19:46:04.615Z,100091.83
2023-05-19T19:49:00.427Z,100097.67
2023-05-19T19:51:53.486Z,100094.86
2023-05-19T19:54:46.375Z,100095.22
2023-05-19T19:57:34.328Z,100095.05
2023-05-19T20:00:19.296Z,100092.79
2023-05-19T20:03:13.443Z,100092.09
2023-05-19T20:06:07.718Z,100092.61
2023-05-19T20:09:00.615Z,100093.33
2023-05-19T20:11:45.718Z,100094.21
2023-05-19T20:14:31.244Z,100092.80
2023-05-19T20:17:24.323Z,100097.74
2023-05-19T20:20:12.541Z,100096.69
2023-05-19T20:23:05.177Z,100092.62
2023-05-19T20:26:10.299Z,100095.80
2023-05-19T20:29:04.193Z,100097.38
2023-05-19T20:31:57.203Z,100098.27
2023-05-19T20:34:43.290Z,100097.73
2023-05-19T20:37:36.869Z,100097.20
2023-05-19T20:40:23.307Z,100095.61
2023-05-19T20:43:16.217Z,100090.88
2023-05-19T20:46:09.174Z,100091.59
2023-05-19T20:49:02.804Z,100094.06
2023-05-19T20:51:55.833Z,100098.98
2023-05-19T20:54:49.131Z,100096.53
2023-05-19T20:57:41.698Z,100091.95
2023-05-19T21:00:34.505Z,100088.60
2023-05-19T21:03:11.833Z,100086.30
2023-05-19T21:06:04.713Z,100087.89
2023-05-19T21:08:57.635Z,100088.60
2023-05-19T21:11:53.776Z,100083.34
2023-05-19T21:14:39.115Z,100082.45
2023-05-19T21:17:32.067Z,100085.09
2023-05-19T21:20:16.334Z,100084.02
2023-05-19T21:23:10.133Z,100078.75
2023-05-19T21:26:01.710Z,100074.17
2023-05-19T21:28:56.410Z,100075.41
2023-05-19T21:31:42.197Z,100077.88
2023-05-19T21:34:27.909Z,100086.67
2023-05-19T21:37:11.848Z,100086.31
2023-05-19T21:39:57.772Z,100086.13
2023-05-19T21:42:52.658Z,100083.84
2023-05-19T21:45:45.185Z,100083.48
2023-05-19T21:48:38.858Z,100087.89
2023-05-19T21:51:31.713Z,100089.83
2023-05-19T21:54:25.870Z,100086.14
2023-05-19T21:57:18.840Z,100080.85
2023-05-19T22:00:06.517Z,100076.45
2023-05-19T22:02:59.122Z,100076.80
2023-05-19T22:05:56.386Z,100076.82
2023-05-19T22:08:50.040Z,100076.10
2023-05-19T22:11:44.691Z,100072.41
2023-05-19T22:14:37.662Z,100072.60
2023-05-19T22:17:30.874Z,100074.36
2023-05-19T22:20:17.670Z,100072.95
2023-05-19T22:23:11.467Z,100076.81
2023-05-19T22:25:58.265Z,100080.67
2023-05-19T22:28:33.785Z,100077.69
2023-05-19T22:31:08.956Z,100071.70
2023-05-19T22:33:41.443Z,100073.46
2023-05-19T22:36:16.138Z,100076.81
2023-05-19T22:38:49.057Z,100073.65
2023-05-19T22:41:23.697Z,100073.84
2023-05-19T22:43:57.052Z,100069.07
2023-05-19T22:46:29.616Z,100067.13
2023-05-19T22:49:23.649Z,100065.02
2023-05-19T22:52:10.248Z,100066.42
2023-05-19T22:54:42.892Z,100064.69
2023-05-19T22:57:35.722Z,100067.48
2023-05-19T23:00:28.508Z,100062.02
2023-05-19T23:03:20.999Z,100062.73
2023-05-19T23:06:12.184Z,100061.52
2023-05-19T23:09:05.882Z,100063.62
2023-05-19T23:11:58.783Z,100065.02
2023-05-19T23:14:51.483Z,100066.08
2023-05-19T23:17:29.819Z,100065.90
2023-05-19T23:20:22.815Z,100063.44
2023-05-19T23:23:15.445Z,100059.92
2023-05-19T23:25:58.137Z,100055.70
2023-05-19T23:28:49.191Z,100056.95
2023-05-19T23:31:42.483Z,100055.89
2023-05-19T23:34:28.997Z,100056.94
2023-05-19T23:37:08.614Z,100058.34
2023-05-19T23:40:01.249Z,100062.02
2023-05-19T23:42:54.455Z,100061.32
2023-05-19T23:45:30.350Z,100060.96
2023-05-19T23:48:11.551Z,100057.09
2023-05-19T23:51:04.584Z,100056.39
2023-05-19T23:53:50.020Z,100052.88
2023-05-19T23:56:41.424Z,100047.09
2023-05-19T23:59:31.426Z,100044.61
